createdAt,value
2023-12-17T00:04:37.702Z,98010.63
2023-12-17T00:09:39.842Z,98006.38
2023-12-17T00:14:43.393Z,98017.25
2023-12-17T00:19:46.980Z,98009.22
2023-12-17T00:24:48.646Z,98012.00
2023-12-17T00:29:50.830Z,98000.66
2023-12-17T00:34:53.182Z,97994.47
2023-12-17T00:39:55.630Z,97999.59
2023-12-17T00:44:57.728Z,97997.69
2023-12-17T00:49:59.737Z,98004.41
2023-12-17T00:55:01.956Z,98003.03
2023-12-17T01:00:05.575Z,98014.91
2023-12-17T01:05:09.264Z,98041.97
2023-12-17T01:10:11.328Z,98042.28
2023-12-17T01:15:14.859Z,98031.72
2023-12-17T01:20:16.814Z,98019.59
2023-12-17T01:25:19.029Z,98025.81
2023-12-17T01:30:22.150Z,98033.63
2023-12-17T01:35:24.263Z,98022.03
2023-12-17T01:40:27.390Z,98023.34
2023-12-17T01:45:30.309Z,98020.63
2023-12-17T01:50:37.940Z,98015.22
2023-12-17T01:55:44.674Z,98017.41
2023-12-17T02:00:49.749Z,98013.13
2023-12-17T02:05:52.478Z,98018.53
2023-12-17T02:10:55.312Z,98015.50
2023-12-17T02:15:57.412Z,98009.03
2023-12-17T02:21:02.226Z,98009.81
2023-12-17T02:26:05.190Z,98003.31
2023-12-17T02:36:23.772Z,98005.72
2023-12-17T02:41:38.851Z,98007.63
2023-12-17T02:46:43.268Z,98003.38
2023-12-17T02:51:49.310Z,97995.25
2023-12-17T02:56:56.854Z,97999.88
2023-12-17T03:02:01.382Z,97990.97
2023-12-17T03:07:06.835Z,98000.47
2023-12-17T03:12:09.564Z,97991.63
2023-12-17T03:17:20.439Z,97984.91
2023-12-17T03:22:26.336Z,97961.66
2023-12-17T03:27:28.683Z,97960.34
2023-12-17T03:32:31.958Z,97956.91
2023-12-17T03:37:44.507Z,97949.38
2023-12-17T03:42:50.610Z,97935.16
2023-12-17T03:47:54.985Z,97924.91
2023-12-17T03:52:58.502Z,97932.78
2023-12-17T03:58:01.562Z,97930.16
2023-12-17T04:03:08.402Z,97932.13
2023-12-17T04:08:14.381Z,97942.19
2023-12-17T04:13:19.109Z,97950.06
2023-12-17T04:18:21.608Z,97948.75
2023-12-17T04:23:27.593Z,97934.78
2023-12-17T04:28:29.434Z,97936.50
2023-12-17T04:33:32.828Z,97937.88
2023-12-17T04:43:50.545Z,97955.47
2023-12-17T04:48:53.945Z,97959.22
2023-12-17T04:53:58.557Z,97979.53
2023-12-17T04:59:01.050Z,97984.69
2023-12-17T05:04:04.427Z,97974.75
2023-12-17T05:09:11.222Z,97969.09
2023-12-17T05:14:13.960Z,97970.47
2023-12-17T05:19:20.244Z,97965.91
2023-12-17T05:24:22.042Z,97962.91
2023-12-17T05:29:26.207Z,97961.59
2023-12-17T05:34:30.164Z,97970.78
2023-12-17T05:39:39.609Z,97964.34
2023-12-17T05:44:41.210Z,97972.75
2023-12-17T05:49:54.675Z,97958.72
2023-12-17T05:54:56.345Z,97952.00
2023-12-17T06:00:00.906Z,97956.81
2023-12-17T06:05:09.233Z,97951.69
2023-12-17T06:10:11.192Z,97954.69
2023-12-17T06:15:17.147Z,97942.00
2023-12-17T06:20:18.761Z,97950.38
2023-12-17T06:25:20.330Z,97960.69
2023-12-17T06:30:22.883Z,97951.75
2023-12-17T06:35:29.409Z,97953.66
2023-12-17T06:40:35.278Z,97950.69
2023-12-17T06:45:36.850Z,97944.19
2023-12-17T06:50:43.292Z,97939.56
2023-12-17T06:55:44.927Z,97944.44
2023-12-17T07:00:51.444Z,97938.72
2023-12-17T07:05:56.116Z,97942.75
2023-12-17T07:11:02.148Z,97954.34
2023-12-17T07:16:22.939Z,97965.13
2023-12-17T07:21:24.618Z,97960.25
2023-12-17T07:26:27.487Z,97966.78
2023-12-17T07:31:29.035Z,97976.47
2023-12-17T07:36:32.705Z,97982.38
2023-12-17T07:41:34.253Z,97978.03
2023-12-17T07:46:35.773Z,97974.22
2023-12-17T07:51:39.340Z,97967.72
2023-12-17T07:56:40.891Z,97962.84
2023-12-17T08:01:44.893Z,97965.28
2023-12-17T08:06:48.554Z,97956.06
2023-12-17T08:11:52.496Z,97959.59
2023-12-17T08:16:54.131Z,97955.78
2023-12-17T08:21:57.888Z,97957.13
2023-12-17T08:27:00.525Z,97950.34
2023-12-17T08:32:05.043Z,97967.06
2023-12-17T08:37:06.694Z,97963.78
2023-12-17T08:42:12.929Z,97963.50
2023-12-17T08:47:14.783Z,97954.81
2023-12-17T08:52:16.320Z,97957.72
2023-12-17T08:57:18.656Z,97957.66
2023-12-17T09:02:22.808Z,97967.38
2023-12-17T09:07:26.539Z,97965.69
2023-12-17T09:12:41.667Z,97959.72
2023-12-17T09:17:48.787Z,97965.13
2023-12-17T09:22:53.642Z,97963.97
2023-12-17T09:27:58.697Z,97959.56
2023-12-17T09:33:08.076Z,97965.50
2023-12-17T09:38:12.634Z,97953.03
2023-12-17T09:43:15.151Z,97967.00
2023-12-17T09:48:17.813Z,97964.81
2023-12-17T09:53:23.738Z,97978.00
2023-12-17T09:58:29.400Z,97977.41
2023-12-17T10:03:38.750Z,97982.56
2023-12-17T10:08:44.622Z,97972.78
2023-12-17T10:13:51.366Z,97961.28
2023-12-17T10:18:54.340Z,97943.88
2023-12-17T10:23:55.987Z,97932.19
2023-12-17T10:28:57.670Z,97932.91
2023-12-17T10:34:24.226Z,97930.13
2023-12-17T10:39:26.729Z,97912.72
2023-12-17T10:44:29.558Z,97915.34
2023-12-17T10:49:35.731Z,97904.44
2023-12-17T10:54:37.400Z,97896.09
2023-12-17T10:59:47.157Z,97905.31
2023-12-17T11:04:49.399Z,97901.50
2023-12-17T11:09:53.553Z,97899.53
2023-12-17T11:15:00.780Z,97884.91
2023-12-17T11:20:04.291Z,97883.50
2023-12-17T11:25:11.044Z,97878.28
2023-12-17T11:30:30.794Z,97876.09
2023-12-17T11:35:36.343Z,97878.81
2023-12-17T11:40:38.930Z,97883.63
2023-12-17T11:45:46.760Z,97867.00
2023-12-17T11:51:00.451Z,97867.19
2023-12-17T11:56:08.388Z,97858.50
2023-12-17T12:01:12.736Z,97849.25
2023-12-17T12:06:17.152Z,97845.75
2023-12-17T12:11:21.023Z,97841.94
2023-12-17T12:16:24.092Z,97838.94
2023-12-17T12:21:26.910Z,97831.34
2023-12-17T12:26:35.923Z,97837.25
2023-12-17T12:31:41.101Z,97824.50
2023-12-17T12:36:47.663Z,97826.63
2023-12-17T12:41:53.195Z,97829.03
2023-12-17T12:46:54.825Z,97824.09
2023-12-17T12:51:58.968Z,97805.03
2023-12-17T12:57:00.779Z,97808.78
2023-12-17T13:02:02.424Z,97803.56
2023-12-17T13:07:04.290Z,97809.47
2023-12-17T13:12:12.458Z,97795.16
2023-12-17T13:17:23.770Z,97796.25
2023-12-17T13:22:27.633Z,97794.84
2023-12-17T13:27:34.107Z,97796.75
2023-12-17T13:32:40.157Z,97794.03
2023-12-17T13:37:43.871Z,97790.03
2023-12-17T13:42:51.518Z,97785.22
2023-12-17T13:47:55.797Z,97779.81
2023-12-17T13:53:01.205Z,97782.28
2023-12-17T13:58:03.038Z,97775.25
2023-12-17T14:03:04.739Z,97777.97
2023-12-17T14:08:09.430Z,97771.25
2023-12-17T14:13:13.479Z,97779.97
2023-12-17T14:18:19.940Z,97770.06
2023-12-17T14:23:22.603Z,97778.19
2023-12-17T14:28:26.135Z,97779.91
2023-12-17T14:33:35.192Z,97782.09
2023-12-17T14:38:42.098Z,97784.53
2023-12-17T14:43:50.030Z,97773.47
2023-12-17T14:49:01.949Z,97768.97
2023-12-17T14:54:03.967Z,97771.66
2023-12-17T14:59:08.070Z,97775.50
2023-12-17T15:04:09.629Z,97766.88
2023-12-17T15:09:23.734Z,97762.84
2023-12-17T15:14:29.312Z,97763.25
2023-12-17T15:19:35.877Z,97771.97
2023-12-17T15:24:46.249Z,97772.06
2023-12-17T15:29:55.475Z,97764.56
2023-12-17T15:34:57.038Z,97767.06
2023-12-17T15:40:01.392Z,97764.38
2023-12-17T15:45:06.545Z,97769.56
2023-12-17T15:50:09.074Z,97765.28
2023-12-17T15:55:10.676Z,97766.66
2023-12-17T16:00:15.864Z,97770.78
2023-12-17T16:05:17.432Z,97765.47
2023-12-17T16:10:29.099Z,97769.56
2023-12-17T16:15:32.860Z,97767.94
2023-12-17T16:20:35.041Z,97762.03
2023-12-17T16:25:36.640Z,97756.94
2023-12-17T16:30:45.384Z,97752.13
2023-12-17T16:35:58.862Z,97752.22
2023-12-17T16:41:09.078Z,97750.59
2023-12-17T16:46:12.994Z,97762.81
2023-12-17T16:51:14.618Z,97753.41
2023-12-17T16:56:17.187Z,97752.59
2023-12-17T17:01:19.112Z,97752.09
2023-12-17T17:06:23.255Z,97747.78
2023-12-17T17:11:29.617Z,97743.97
2023-12-17T17:16:32.396Z,97740.47
2023-12-17T17:21:38.834Z,97741.59
2023-12-17T17:26:40.432Z,97743.00
2023-12-17T17:31:45.415Z,97735.66
2023-12-17T17:36:49.291Z,97739.97
2023-12-17T17:41:53.959Z,97741.06
2023-12-17T17:46:55.643Z,97748.88
2023-12-17T17:52:01.837Z,97748.97
2023-12-17T17:57:07.374Z,97749.28
2023-12-17T18:02:11.232Z,97753.56
2023-12-17T18:07:15.006Z,97758.19
2023-12-17T18:12:19.651Z,97758.47
2023-12-17T18:17:21.624Z,97759.88
2023-12-17T18:22:30.529Z,97765.28
2023-12-17T18:27:35.250Z,97754.78
2023-12-17T18:32:46.134Z,97757.47
2023-12-17T18:37:50.391Z,97762.09
2023-12-17T18:42:53.993Z,97760.47
2023-12-17T18:48:01.724Z,97756.25
2023-12-17T18:53:03.551Z,97744.94
2023-12-17T18:58:09.439Z,97741.44
2023-12-17T19:03:11.093Z,97751.44
2023-12-17T19:08:12.714Z,97747.91
2023-12-17T19:13:16.394Z,97742.00
2023-12-17T19:18:20.575Z,97739.63
2023-12-17T19:23:22.292Z,97735.00
2023-12-17T19:28:29.447Z,97735.28
2023-12-17T19:33:31.115Z,97723.19
2023-12-17T19:38:32.741Z,97722.09
2023-12-17T19:43:38.370Z,97732.91
2023-12-17T19:48:44.791Z,97727.28
2023-12-17T19:53:47.066Z,97720.06
2023-12-17T19:58:48.737Z,97718.78
2023-12-17T20:03:56.303Z,97720.16
2023-12-17T20:08:58.073Z,97710.75
2023-12-17T20:13:59.700Z,97717.22
2023-12-17T20:19:08.674Z,97707.81
2023-12-17T20:24:14.742Z,97715.41
2023-12-17T20:29:16.389Z,97708.13
2023-12-17T20:34:18.747Z,97706.50
2023-12-17T20:39:20.425Z,97699.53
2023-12-17T20:44:22.074Z,97692.00
2023-12-17T20:49:38.568Z,97703.91
2023-12-17T20:54:42.341Z,97702.31
2023-12-17T21:00:01.443Z,97695.28
2023-12-17T21:05:04.613Z,97696.66
2023-12-17T21:10:07.129Z,97699.19
2023-12-17T21:15:13.827Z,97690.56
2023-12-17T21:20:17.667Z,97689.75
2023-12-17T21:25:29.986Z,97682.53
2023-12-17T21:30:37.156Z,97678.25
2023-12-17T21:35:43.769Z,97677.13
2023-12-17T21:40:45.395Z,97688.75
2023-12-17T21:45:49.629Z,97679.63
2023-12-17T21:50:54.780Z,97685.03
2023-12-17T21:56:05.361Z,97682.34
2023-12-17T22:01:08.510Z,97688.03
2023-12-17T22:06:14.630Z,97693.41
2023-12-17T22:11:19.058Z,97695.31
2023-12-17T22:16:23.083Z,97688.03
2023-12-17T22:21:27.343Z,97691.00
2023-12-17T22:26:31.779Z,97691.59
2023-12-17T22:31:35.856Z,97686.19
2023-12-17T22:36:40.066Z,97691.09
2023-12-17T22:41:47.036Z,97696.78
2023-12-17T22:46:49.839Z,97703.78
2023-12-17T22:51:55.670Z,97696.00
2023-12-17T22:56:57.301Z,97683.28
2023-12-17T23:01:59.097Z,97677.59
2023-12-17T23:07:01.787Z,97673.00
2023-12-17T23:12:05.999Z,97675.47
2023-12-17T23:17:09.937Z,97667.38
2023-12-17T23:22:14.089Z,97665.28
2023-12-17T23:27:16.897Z,97658.84
2023-12-17T23:32:28.029Z,97663.44
2023-12-17T23:37:31.867Z,97671.84
2023-12-17T23:42:37.777Z,97668.34
2023-12-17T23:47:42.814Z,97668.66
2023-12-17T23:52:45.819Z,97657.34
2023-12-17T23:57:48.606Z,97653.31
